sensor_id;sensor_type;location;lat;lon;timestamp;temperature;humidity
55026;DHT22;40925;45.666;18.994;2023-05-16T00:00:08;359.10;2329.60
55026;DHT22;40925;45.666;18.994;2023-05-16T00:02:35;359.10;2329.60
55026;DHT22;40925;45.666;18.994;2023-05-16T00:05:02;359.00;2329.60
55026;DHT22;40925;45.666;18.994;2023-05-16T00:07:29;384.00;2329.60
55026;DHT22;40925;45.666;18.994;2023-05-16T03:31:54;384.10;2329.60
55026;DHT22;40925;45.666;18.994;2023-05-16T03:34:20;359.30;2329.60
55026;DHT22;40925;45.666;18.994;2023-05-16T03:36:47;359.20;2329.60
55026;DHT22;40925;45.666;18.994;2023-05-16T03:39:13;359.20;2329.60
55026;DHT22;40925;45.666;18.994;2023-05-16T03:41:39;359.10;2329.60
55026;DHT22;40925;45.666;18.994;2023-05-16T03:44:04;359.20;2329.60
55026;DHT22;40925;45.666;18.994;2023-05-16T03:46:30;359.20;2329.60
55026;DHT22;40925;45.666;18.994;2023-05-16T03:48:56;359.10;2329.60
55026;DHT22;40925;45.666;18.994;2023-05-16T03:51:21;359.10;2329.60
55026;DHT22;40925;45.666;18.994;2023-05-16T03:53:47;359.20;2329.60
55026;DHT22;40925;45.666;18.994;2023-05-16T03:56:13;359.20;2329.60
55026;DHT22;40925;45.666;18.994;2023-05-16T03:58:38;359.20;2329.60
55026;DHT22;40925;45.666;18.994;2023-05-16T04:01:04;359.20;2329.60
55026;DHT22;40925;45.666;18.994;2023-05-16T04:03:30;359.20;2329.60
55026;DHT22;40925;45.666;18.994;2023-05-16T04:05:58;384.10;2329.60
55026;DHT22;40925;45.666;18.994;2023-05-16T04:18:08;384.30;2329.60
55026;DHT22;40925;45.666;18.994;2023-05-16T04:20:34;384.00;2329.60
55026;DHT22;40925;45.666;18.994;2023-05-16T04:23:01;384.00;2329.60
55026;DHT22;40925;45.666;18.994;2023-05-16T04:25:27;384.00;2329.60
55026;DHT22;40925;45.666;18.994;2023-05-16T04:27:52;359.30;2329.60
55026;DHT22;40925;45.666;18.994;2023-05-16T04:30:18;384.00;2329.60
55026;DHT22;40925;45.666;18.994;2023-05-16T04:32:44;384.00;2329.60
55026;DHT22;40925;45.666;18.994;2023-05-16T04:35:09;384.00;2329.60
55026;DHT22;40925;45.666;18.994;2023-05-16T04:37:35;384.00;2329.60
55026;DHT22;40925;45.666;18.994;2023-05-16T04:40:02;384.00;2329.60
55026;DHT22;40925;45.666;18.994;2023-05-16T04:42:28;384.00;2329.60
55026;DHT22;40925;45.666;18.994;2023-05-16T04:44:53;384.00;2329.60
55026;DHT22;40925;45.666;18.994;2023-05-16T04:47:20;384.00;2329.60
55026;DHT22;40925;45.666;18.994;2023-05-16T04:49:46;384.00;2329.60
55026;DHT22;40925;45.666;18.994;2023-05-16T04:52:12;384.00;2329.60
55026;DHT22;40925;45.666;18.994;2023-05-16T04:54:38;384.10;2329.60
55026;DHT22;40925;45.666;18.994;2023-05-16T04:57:04;384.10;2329.60
55026;DHT22;40925;45.666;18.994;2023-05-16T04:59:30;384.00;2329.60
55026;DHT22;40925;45.666;18.994;2023-05-16T05:01:56;384.10;2329.60
55026;DHT22;40925;45.666;18.994;2023-05-16T05:04:21;384.20;2329.60
55026;DHT22;40925;45.666;18.994;2023-05-16T05:06:48;384.20;2329.60
55026;DHT22;40925;45.666;18.994;2023-05-16T05:09:13;384.20;2329.60
55026;DHT22;40925;45.666;18.994;2023-05-16T05:11:39;384.20;2329.60
55026;DHT22;40925;45.666;18.994;2023-05-16T05:14:05;384.20;2329.60
55026;DHT22;40925;45.666;18.994;2023-05-16T05:16:30;384.20;2329.60
55026;DHT22;40925;45.666;18.994;2023-05-16T05:18:57;384.20;2329.60
55026;DHT22;40925;45.666;18.994;2023-05-16T05:21:23;384.20;2329.60
55026;DHT22;40925;45.666;18.994;2023-05-16T05:23:50;384.30;2329.60
55026;DHT22;40925;45.666;18.994;2023-05-16T05:26:17;384.30;2329.60
55026;DHT22;40925;45.666;18.994;2023-05-16T05:28:42;384.40;2329.60
55026;DHT22;40925;45.666;18.994;2023-05-16T05:31:08;384.40;2329.60
55026;DHT22;40925;45.666;18.994;2023-05-16T05:33:34;384.40;2329.60
55026;DHT22;40925;45.666;18.994;2023-05-16T05:36:00;384.30;2329.60
55026;DHT22;40925;45.666;18.994;2023-05-16T05:38:25;384.40;2329.60
55026;DHT22;40925;45.666;18.994;2023-05-16T05:40:51;384.50;2329.60
55026;DHT22;40925;45.666;18.994;2023-05-16T05:43:17;384.60;2329.60
55026;DHT22;40925;45.666;18.994;2023-05-16T05:50:36;384.90;2329.60
55026;DHT22;40925;45.666;18.994;2023-05-16T05:57:54;409.70;2355.20
55026;DHT22;40925;45.666;18.994;2023-05-16T06:00:20;384.90;2329.60
55026;DHT22;40925;45.666;18.994;2023-05-16T06:02:47;384.90;2329.60
55026;DHT22;40925;45.666;18.994;2023-05-16T06:05:13;384.90;2329.60
55026;DHT22;40925;45.666;18.994;2023-05-16T06:07:38;384.90;2329.60
55026;DHT22;40925;45.666;18.994;2023-05-16T06:10:04;409.60;2355.20
55026;DHT22;40925;45.666;18.994;2023-05-16T06:12:32;409.60;2355.20
55026;DHT22;40925;45.666;18.994;2023-05-16T06:14:58;409.80;2355.20
55026;DHT22;40925;45.666;18.994;2023-05-16T06:17:24;410.00;2355.20
55026;DHT22;40925;45.666;18.994;2023-05-16T06:19:49;410.10;2355.20
55026;DHT22;40925;45.666;18.994;2023-05-16T06:22:15;409.90;2355.20
55026;DHT22;40925;45.666;18.994;2023-05-16T06:24:41;409.80;2355.20
55026;DHT22;40925;45.666;18.994;2023-05-16T06:27:07;409.80;2355.20
55026;DHT22;40925;45.666;18.994;2023-05-16T06:29:33;410.10;2355.20
55026;DHT22;40925;45.666;18.994;2023-05-16T06:31:59;410.50;2355.20
55026;DHT22;40925;45.666;18.994;2023-05-16T06:34:24;410.20;2355.20
55026;DHT22;40925;45.666;18.994;2023-05-16T06:36:53;410.40;2355.20
55026;DHT22;40925;45.666;18.994;2023-05-16T07:35:23;436.00;2355.20
55026;DHT22;40925;45.666;18.994;2023-05-16T07:37:49;435.20;2355.20
55026;DHT22;40925;45.666;18.994;2023-05-16T07:40:15;435.70;2355.20
55026;DHT22;40925;45.666;18.994;2023-05-16T07:42:42;435.60;2355.20
55026;DHT22;40925;45.666;18.994;2023-05-16T07:45:09;435.70;2355.20
55026;DHT22;40925;45.666;18.994;2023-05-16T07:47:34;435.60;2355.20
55026;DHT22;40925;45.666;18.994;2023-05-16T07:50:00;435.60;2355.20
55026;DHT22;40925;45.666;18.994;2023-05-16T07:52:26;435.50;2355.20
55026;DHT22;40925;45.666;18.994;2023-05-16T07:54:52;435.50;2355.20
55026;DHT22;40925;45.666;18.994;2023-05-16T07:57:17;435.70;2355.20
55026;DHT22;40925;45.666;18.994;2023-05-16T07:59:43;435.90;2355.20
55026;DHT22;40925;45.666;18.994;2023-05-16T08:02:10;436.00;2355.20
55026;DHT22;40925;45.666;18.994;2023-05-16T08:07:02;460.80;2380.80
55026;DHT22;40925;45.666;18.994;2023-05-16T08:09:28;436.00;2355.20
55026;DHT22;40925;45.666;18.994;2023-05-16T08:11:54;436.00;2355.20
55026;DHT22;40925;45.666;18.994;2023-05-16T08:14:19;436.10;2355.20
55026;DHT22;40925;45.666;18.994;2023-05-16T08:16:45;436.10;2355.20
55026;DHT22;40925;45.666;18.994;2023-05-16T08:19:11;436.00;2355.20
55026;DHT22;40925;45.666;18.994;2023-05-16T08:21:37;436.00;2355.20
55026;DHT22;40925;45.666;18.994;2023-05-16T08:24:03;436.00;2355.20
55026;DHT22;40925;45.666;18.994;2023-05-16T08:26:30;436.00;2355.20
55026;DHT22;40925;45.666;18.994;2023-05-16T08:28:55;436.00;2355.20
55026;DHT22;40925;45.666;18.994;2023-05-16T08:31:21;436.10;2355.20
55026;DHT22;40925;45.666;18.994;2023-05-16T08:33:47;460.80;2380.80
55026;DHT22;40925;45.666;18.994;2023-05-16T16:54:25;486.50;2380.80
55026;DHT22;40925;45.666;18.994;2023-05-16T16:56:52;461.70;2380.80
55026;DHT22;40925;45.666;18.994;2023-05-16T16:59:18;460.80;2380.80
55026;DHT22;40925;45.666;18.994;2023-05-16T17:01:44;435.80;2355.20
55026;DHT22;40925;45.666;18.994;2023-05-16T17:06:36;436.10;2355.20
55026;DHT22;40925;45.666;18.994;2023-05-16T17:09:02;435.90;2355.20
55026;DHT22;40925;45.666;18.994;2023-05-16T17:11:40;435.80;2355.20
55026;DHT22;40925;45.666;18.994;2023-05-16T17:14:07;435.70;2355.20
55026;DHT22;40925;45.666;18.994;2023-05-16T17:16:35;435.70;2355.20
55026;DHT22;40925;45.666;18.994;2023-05-16T17:19:02;435.60;2355.20
55026;DHT22;40925;45.666;18.994;2023-05-16T17:21:29;460.90;2380.80
55026;DHT22;40925;45.666;18.994;2023-05-16T17:23:55;435.80;2355.20
55026;DHT22;40925;45.666;18.994;2023-05-16T17:26:22;436.00;2355.20
55026;DHT22;40925;45.666;18.994;2023-05-16T17:28:49;436.10;2355.20
55026;DHT22;40925;45.666;18.994;2023-05-16T17:31:15;461.10;2380.80
55026;DHT22;40925;45.666;18.994;2023-05-16T17:33:41;461.10;2380.80
55026;DHT22;40925;45.666;18.994;2023-05-16T17:36:06;461.10;2380.80
55026;DHT22;40925;45.666;18.994;2023-05-16T17:38:33;460.90;2380.80
55026;DHT22;40925;45.666;18.994;2023-05-16T17:41:00;460.80;2380.80
55026;DHT22;40925;45.666;18.994;2023-05-16T17:43:27;461.30;2380.80
55026;DHT22;40925;45.666;18.994;2023-05-16T17:45:53;460.80;2380.80
55026;DHT22;40925;45.666;18.994;2023-05-16T17:48:19;460.80;2380.80
55026;DHT22;40925;45.666;18.994;2023-05-16T17:50:45;460.80;2380.80
55026;DHT22;40925;45.666;18.994;2023-05-16T17:53:10;436.10;2355.20
55026;DHT22;40925;45.666;18.994;2023-05-16T17:55:36;436.10;2355.20
55026;DHT22;40925;45.666;18.994;2023-05-16T17:58:02;436.10;2355.20
55026;DHT22;40925;45.666;18.994;2023-05-16T18:00:28;436.00;2355.20
55026;DHT22;40925;45.666;18.994;2023-05-16T18:02:54;436.00;2355.20
55026;DHT22;40925;45.666;18.994;2023-05-16T18:05:20;460.80;2380.80
55026;DHT22;40925;45.666;18.994;2023-05-16T18:08:04;436.00;2355.20
55026;DHT22;40925;45.666;18.994;2023-05-16T18:10:30;436.00;2355.20
55026;DHT22;40925;45.666;18.994;2023-05-16T18:12:57;436.00;2355.20
55026;DHT22;40925;45.666;18.994;2023-05-16T18:15:23;435.80;2355.20
55026;DHT22;40925;45.666;18.994;2023-05-16T18:17:49;435.80;2355.20
55026;DHT22;40925;45.666;18.994;2023-05-16T18:20:16;435.70;2355.20
55026;DHT22;40925;45.666;18.994;2023-05-16T18:27:36;436.00;2355.20
55026;DHT22;40925;45.666;18.994;2023-05-16T18:30:03;435.80;2355.20
55026;DHT22;40925;45.666;18.994;2023-05-16T18:32:30;435.70;2355.20
55026;DHT22;40925;45.666;18.994;2023-05-16T18:34:56;435.70;2355.20
55026;DHT22;40925;45.666;18.994;2023-05-16T18:37:22;435.80;2355.20
55026;DHT22;40925;45.666;18.994;2023-05-16T18:39:48;435.80;2355.20
55026;DHT22;40925;45.666;18.994;2023-05-16T18:42:14;435.70;2355.20
55026;DHT22;40925;45.666;18.994;2023-05-16T18:44:47;435.70;2355.20
55026;DHT22;40925;45.666;18.994;2023-05-16T18:47:18;435.70;2355.20
55026;DHT22;40925;45.666;18.994;2023-05-16T18:49:45;435.70;2355.20
55026;DHT22;40925;45.666;18.994;2023-05-16T18:52:11;435.70;2355.20
55026;DHT22;40925;45.666;18.994;2023-05-16T18:54:38;435.60;2355.20
55026;DHT22;40925;45.666;18.994;2023-05-16T18:57:07;435.60;2355.20
55026;DHT22;40925;45.666;18.994;2023-05-16T18:59:33;435.60;2355.20
55026;DHT22;40925;45.666;18.994;2023-05-16T19:01:59;435.60;2355.20
55026;DHT22;40925;45.666;18.994;2023-05-16T19:26:38;435.50;2355.20
55026;DHT22;40925;45.666;18.994;2023-05-16T19:29:04;435.40;2355.20
55026;DHT22;40925;45.666;18.994;2023-05-16T19:33:57;435.50;2355.20
55026;DHT22;40925;45.666;18.994;2023-05-16T19:36:23;435.30;2355.20
55026;DHT22;40925;45.666;18.994;2023-05-16T19:38:49;435.30;2355.20
55026;DHT22;40925;45.666;18.994;2023-05-16T19:41:15;410.50;2355.20
55026;DHT22;40925;45.666;18.994;2023-05-16T19:43:44;435.20;2355.20
55026;DHT22;40925;45.666;18.994;2023-05-16T19:46:09;410.40;2355.20
55026;DHT22;40925;45.666;18.994;2023-05-16T19:48:35;410.40;2355.20
55026;DHT22;40925;45.666;18.994;2023-05-16T19:51:01;410.40;2355.20
55026;DHT22;40925;45.666;18.994;2023-05-16T19:53:46;409.90;2355.20
55026;DHT22;40925;45.666;18.994;2023-05-16T19:56:11;410.50;2355.20
55026;DHT22;40925;45.666;18.994;2023-05-16T19:58:37;410.50;2355.20
55026;DHT22;40925;45.666;18.994;2023-05-16T20:01:03;435.20;2355.20
55026;DHT22;40925;45.666;18.994;2023-05-16T20:03:29;410.50;2355.20
55026;DHT22;40925;45.666;18.994;2023-05-16T20:05:56;435.20;2355.20
55026;DHT22;40925;45.666;18.994;2023-05-16T20:08:22;410.50;2355.20
55026;DHT22;40925;45.666;18.994;2023-05-16T20:10:48;410.50;2355.20
55026;DHT22;40925;45.666;18.994;2023-05-16T20:13:13;410.40;2355.20
55026;DHT22;40925;45.666;18.994;2023-05-16T20:15:45;410.40;2355.20
55026;DHT22;40925;45.666;18.994;2023-05-16T20:18:14;410.40;2355.20
55026;DHT22;40925;45.666;18.994;2023-05-16T20:20:40;410.40;2355.20
55026;DHT22;40925;45.666;18.994;2023-05-16T20:23:06;410.40;2355.20
55026;DHT22;40925;45.666;18.994;2023-05-16T20:25:32;410.40;2355.20
55026;DHT22;40925;45.666;18.994;2023-05-16T20:27:58;410.40;2355.20
55026;DHT22;40925;45.666;18.994;2023-05-16T20:30:24;410.40;2355.20
55026;DHT22;40925;45.666;18.994;2023-05-16T20:32:50;410.50;2355.20
55026;DHT22;40925;45.666;18.994;2023-05-16T20:35:15;410.50;2355.20
55026;DHT22;40925;45.666;18.994;2023-05-16T20:37:41;410.50;2355.20
55026;DHT22;40925;45.666;18.994;2023-05-16T20:40:08;410.50;2355.20
55026;DHT22;40925;45.666;18.994;2023-05-16T20:42:35;435.20;2355.20
55026;DHT22;40925;45.666;18.994;2023-05-16T20:45:01;435.20;2355.20
55026;DHT22;40925;45.666;18.994;2023-05-16T20:47:27;410.50;2355.20
55026;DHT22;40925;45.666;18.994;2023-05-16T20:49:56;435.20;2355.20
55026;DHT22;40925;45.666;18.994;2023-05-16T20:52:22;435.20;2355.20
55026;DHT22;40925;45.666;18.994;2023-05-16T20:54:48;410.50;2355.20
55026;DHT22;40925;45.666;18.994;2023-05-16T20:57:14;410.50;2355.20
55026;DHT22;40925;45.666;18.994;2023-05-16T20:59:42;410.50;2355.20
55026;DHT22;40925;45.666;18.994;2023-05-16T21:02:11;410.50;2355.20
55026;DHT22;40925;45.666;18.994;2023-05-16T21:04:37;410.50;2355.20
55026;DHT22;40925;45.666;18.994;2023-05-16T21:07:03;410.50;2355.20
55026;DHT22;40925;45.666;18.994;2023-05-16T21:09:30;410.50;2355.20
55026;DHT22;40925;45.666;18.994;2023-05-16T21:11:56;410.40;2355.20
55026;DHT22;40925;45.666;18.994;2023-05-16T21:14:23;410.40;2355.20
55026;DHT22;40925;45.666;18.994;2023-05-16T21:16:49;410.40;2355.20
55026;DHT22;40925;45.666;18.994;2023-05-16T21:19:16;410.30;2355.20
55026;DHT22;40925;45.666;18.994;2023-05-16T21:21:42;410.30;2355.20
55026;DHT22;40925;45.666;18.994;2023-05-16T21:24:08;410.30;2355.20
55026;DHT22;40925;45.666;18.994;2023-05-16T21:26:33;410.20;2355.20
55026;DHT22;40925;45.666;18.994;2023-05-16T21:28:59;410.30;2355.20
55026;DHT22;40925;45.666;18.994;2023-05-16T21:31:25;410.00;2355.20
55026;DHT22;40925;45.666;18.994;2023-05-16T22:46:57;384.80;2329.60
